Time;durP1;ratioP1;P1;durP2;ratioP2;P2;SDS_P1;SDS_P2;PMS_P1;PMS_P2;Temp;Humidity;BMP_temperature;BMP_pressure;BME280_temperature;BME280_humidity;BME280_pressure;Samples;Min_cycle;Max_cycle;Signal;HPM_P1;HPM_P2
2021/12/26 00:01:34;;;;;;;45.75;24.17;;;21.70;33.50;;;;;;6148335;28;83558;-67
2021/12/26 00:04:35;;;;;;;44.95;23.55;;;21.70;33.30;;;;;;6148527;28;83465;-67
2021/12/26 00:07:35;;;;;;;41.08;22.17;;;21.70;33.40;;;;;;6149453;28;85060;-67
2021/12/26 00:10:36;;;;;;;43.67;23.23;;;21.70;33.30;;;;;;6150111;28;85414;-68
2021/12/26 00:13:36;;;;;;;48.47;24.95;;;21.70;33.30;;;;;;6149037;28;83820;-68
2021/12/26 00:16:37;;;;;;;40.08;22.23;;;21.70;33.20;;;;;;6148130;28;84267;-69
2021/12/26 00:19:37;;;;;;;39.58;23.02;;;21.70;33.20;;;;;;6148317;28;83741;-69
2021/12/26 00:22:38;;;;;;;41.83;21.80;;;21.70;33.10;;;;;;6146872;28;84070;-69
2021/12/26 00:25:38;;;;;;;41.70;21.70;;;21.70;33.20;;;;;;6146220;28;83716;-68
2021/12/26 00:28:39;;;;;;;41.53;23.00;;;21.70;33.20;;;;;;6148057;28;84260;-68
2021/12/26 00:31:39;;;;;;;45.58;24.00;;;21.70;33.10;;;;;;6143941;28;85974;-69
2021/12/26 00:34:40;;;;;;;41.10;22.10;;;21.70;33.20;;;;;;6146448;28;85130;-69
2021/12/26 00:37:40;;;;;;;43.72;22.20;;;21.70;33.10;;;;;;6148381;28;83367;-69
2021/12/26 00:40:41;;;;;;;43.15;22.52;;;21.70;33.20;;;;;;6149453;28;84229;-69
2021/12/26 00:43:41;;;;;;;37.47;21.27;;;21.70;33.20;;;;;;6145264;28;86125;-69
2021/12/26 00:46:42;;;;;;;39.72;21.50;;;21.70;33.10;;;;;;6147280;28;84007;-70
2021/12/26 00:49:42;;;;;;;41.13;21.58;;;21.60;33.10;;;;;;6146223;28;84058;-70
2021/12/26 00:52:43;;;;;;;37.75;20.75;;;21.60;33.30;;;;;;6147071;28;84089;-69
2021/12/26 00:55:43;;;;;;;40.65;21.50;;;21.60;33.30;;;;;;6146049;28;86006;-70
2021/12/26 00:58:44;;;;;;;35.65;19.55;;;21.60;33.40;;;;;;6146629;28;86200;-69
2021/12/26 01:01:45;;;;;;;37.50;19.38;;;21.60;33.50;;;;;;6145868;28;85118;-69
2021/12/26 01:04:45;;;;;;;38.90;20.73;;;21.60;33.60;;;;;;6146042;28;84518;-69
2021/12/26 01:07:56;;;;;;;38.60;20.13;;;21.60;33.70;;;;;;6147513;28;83418;-70
2021/12/26 01:10:58;;;;;;;32.03;18.60;;;21.60;33.60;;;;;;6148445;28;83726;-69
2021/12/26 01:14:04;;;;;;;;;;;21.60;33.70;;;;;;6144850;28;84530;-69
2021/12/26 01:17:28;;;;;;;37.45;19.70;;;21.50;33.90;;;;;;6153162;28;82746;-69
2021/12/26 01:21:20;;;;;;;36.65;19.25;;;21.60;33.60;;;;;;6144812;28;84175;-68
2021/12/26 01:24:00;;;;;;;33.08;17.52;;;21.60;33.60;;;;;;6135382;28;85894;-69
2021/12/26 01:27:01;;;;;;;36.53;19.88;;;21.50;33.60;;;;;;6144916;28;85771;-74
2021/12/26 01:30:06;;;;;;;32.88;17.02;;;21.50;33.70;;;;;;6146003;28;86459;-72
2021/12/26 01:33:09;;;;;;;32.78;17.25;;;21.50;33.80;;;;;;6144468;28;84032;-72
2021/12/26 01:36:28;;;;;;;31.17;16.83;;;21.50;34.10;;;;;;6152567;28;85128;-69
2021/12/26 01:40:07;;;;;;;31.45;16.27;;;21.50;34.20;;;;;;6155613;28;83917;-69
2021/12/26 01:43:30;;;;;;;27.17;14.35;;;21.50;34.60;;;;;;6155330;28;88819;-69
2021/12/26 01:46:48;;;;;;;27.50;14.13;;;21.50;34.70;;;;;;6160478;28;86282;-68
2021/12/26 01:49:50;;;;;;;24.13;13.43;;;21.50;35.80;;;;;;6152308;28;85804;-68
2021/12/26 01:52:51;;;;;;;24.90;13.25;;;21.50;36.10;;;;;;6182833;28;85238;-67
2021/12/26 01:55:52;;;;;;;29.77;14.73;;;21.50;36.20;;;;;;6166434;28;83152;-67
2021/12/26 01:58:52;;;;;;;24.27;13.35;;;21.50;36.20;;;;;;6155404;28;85969;-68
2021/12/26 02:02:12;;;;;;;24.15;13.38;;;21.50;36.20;;;;;;6155323;28;85907;-67
2021/12/26 02:05:12;;;;;;;25.35;13.40;;;21.60;36.10;;;;;;6154770;28;86362;-68
2021/12/26 02:08:13;;;;;;;25.05;12.75;;;21.60;36.80;;;;;;6170836;28;85579;-68
2021/12/26 02:11:16;;;;;;;26.48;12.88;;;21.60;35.90;;;;;;6155462;28;85745;-68
2021/12/26 02:14:16;;;;;;;28.40;14.60;;;21.50;35.80;;;;;;6160562;28;85348;-70
2021/12/26 02:17:35;;;;;;;27.15;14.10;;;21.50;35.70;;;;;;6173741;28;83143;-70
2021/12/26 02:24:03;;;;;;;27.10;14.18;;;21.50;35.40;;;;;;6158527;28;84448;-67
2021/12/26 02:30:23;;;;;;;26.10;14.18;;;21.50;35.20;;;;;;6168102;28;85697;-69
2021/12/26 02:33:26;;;;;;;27.58;14.43;;;21.50;34.80;;;;;;6163124;28;85805;-68
2021/12/26 02:36:27;;;;;;;29.05;14.60;;;21.50;35.00;;;;;;6165115;28;85839;-68
2021/12/26 02:39:31;;;;;;;31.50;16.13;;;21.40;34.60;;;;;;6162848;28;84806;-68
2021/12/26 02:42:31;;;;;;;28.58;14.07;;;21.40;34.60;;;;;;6147657;28;84562;-68
2021/12/26 02:45:32;;;;;;;27.13;14.70;;;21.40;34.50;;;;;;6157571;28;85730;-68
2021/12/26 02:48:33;;;;;;;29.83;15.85;;;21.40;34.40;;;;;;6157933;28;86181;-69
2021/12/26 02:51:33;;;;;;;28.58;15.07;;;21.40;34.50;;;;;;6164764;28;83056;-69
2021/12/26 02:54:34;;;;;;;29.05;14.93;;;21.40;34.40;;;;;;6175254;27;82807;-68
2021/12/26 02:57:35;;;;;;;29.70;14.82;;;21.40;34.30;;;;;;6165001;28;85747;-68
2021/12/26 03:00:36;;;;;;;25.65;14.35;;;21.40;34.30;;;;;;6170329;28;83564;-69
2021/12/26 03:03:37;;;;;;;30.42;14.93;;;21.40;34.30;;;;;;6166356;28;85683;-68
2021/12/26 03:07:02;;;;;;;26.65;14.35;;;21.30;34.10;;;;;;6156334;28;86260;-68
2021/12/26 03:10:03;;;;;;;26.02;13.63;;;21.30;34.10;;;;;;6157060;28;83452;-69
2021/12/26 03:13:03;;;;;;;29.38;14.00;;;21.40;35.10;;;;;;6170112;28;86077;-67
2021/12/26 03:16:04;;;;;;;28.25;15.30;;;21.40;34.20;;;;;;6159465;28;85969;-67
2021/12/26 03:19:04;;;;;;;27.02;13.50;;;21.50;33.60;;;;;;6171340;28;83543;-68
2021/12/26 03:22:05;;;;;;;28.98;14.45;;;21.50;33.20;;;;;;6160616;28;83858;-67
2021/12/26 03:25:05;;;;;;;27.65;14.30;;;21.60;32.90;;;;;;6171640;28;84595;-67
2021/12/26 03:28:06;;;;;;;29.23;13.93;;;21.60;32.70;;;;;;6166114;28;85524;-67
2021/12/26 03:31:06;;;;;;;29.80;15.18;;;21.80;32.70;;;;;;6171177;28;84314;-66
2021/12/26 03:34:10;;;;;;;30.40;14.27;;;21.80;32.40;;;;;;6171716;28;86231;-66
2021/12/26 03:37:11;;;;;;;26.15;14.10;;;21.90;32.60;;;;;;6146969;28;86137;-67
2021/12/26 03:40:11;;;;;;;31.42;14.73;;;21.90;32.50;;;;;;6172547;28;86029;-66
2021/12/26 03:43:12;;;;;;;28.33;14.10;;;21.90;32.50;;;;;;6156773;28;85426;-66
2021/12/26 03:46:13;;;;;;;26.45;13.80;;;22.00;32.30;;;;;;6154395;28;85763;-66
2021/12/26 03:49:14;;;;;;;26.98;14.20;;;22.00;32.40;;;;;;6188139;28;84597;-67
2021/12/26 03:52:15;;;;;;;29.52;14.10;;;22.00;32.30;;;;;;6164708;28;84061;-67
2021/12/26 03:55:15;;;;;;;27.55;13.70;;;22.10;32.70;;;;;;6154185;28;86704;-67
2021/12/26 03:58:16;;;;;;;26.40;13.98;;;22.10;32.00;;;;;;6155678;28;85649;-67
2021/12/26 04:01:17;;;;;;;26.00;12.95;;;22.10;31.90;;;;;;6152008;28;85153;-67
2021/12/26 04:04:18;;;;;;;23.50;12.68;;;22.10;31.90;;;;;;6172750;28;85613;-66
2021/12/26 04:07:18;;;;;;;30.73;15.05;;;22.20;31.70;;;;;;6156856;28;85631;-66
2021/12/26 04:10:19;;;;;;;26.15;14.38;;;22.20;31.50;;;;;;6170234;28;85719;-66
2021/12/26 04:13:20;;;;;;;30.05;14.65;;;22.20;31.50;;;;;;6166505;28;82860;-66
2021/12/26 04:16:20;;;;;;;31.13;14.93;;;22.20;31.30;;;;;;6172454;28;84481;-66
2021/12/26 04:19:21;;;;;;;24.88;13.95;;;22.30;31.30;;;;;;6154548;28;89754;-67
2021/12/26 04:22:21;;;;;;;28.65;15.05;;;22.30;31.30;;;;;;6154226;28;83284;-66
2021/12/26 04:25:22;;;;;;;28.48;14.75;;;22.30;31.10;;;;;;6162385;28;84882;-66
2021/12/26 04:28:23;;;;;;;28.50;13.55;;;22.30;31.30;;;;;;6154013;28;83412;-66
2021/12/26 04:31:23;;;;;;;27.67;13.52;;;22.30;31.30;;;;;;6169920;28;85611;-67
2021/12/26 04:34:25;;;;;;;29.63;14.63;;;22.30;31.30;;;;;;6172041;28;85705;-67
2021/12/26 04:37:26;;;;;;;30.60;14.95;;;22.30;31.30;;;;;;6163329;28;85623;-67
2021/12/26 04:40:26;;;;;;;28.48;15.48;;;22.30;31.40;;;;;;6170624;28;85265;-67
2021/12/26 04:43:50;;;;;;;27.60;13.70;;;22.40;31.40;;;;;;6156630;28;83752;-66
2021/12/26 04:47:14;;;;;;;28.33;14.75;;;22.40;31.40;;;;;;6169313;28;83031;-66
2021/12/26 04:50:15;;;;;;;27.42;14.63;;;22.40;31.50;;;;;;6168034;28;85951;-67
2021/12/26 04:53:20;;;;;;;27.53;13.77;;;22.40;31.60;;;;;;6155593;28;85776;-66
2021/12/26 04:56:20;;;;;;;28.48;14.02;;;22.40;31.50;;;;;;6159076;28;85839;-66
2021/12/26 04:59:21;;;;;;;26.38;14.18;;;22.40;31.40;;;;;;6155210;28;85929;-66
2021/12/26 05:02:22;;;;;;;28.25;14.10;;;22.40;31.50;;;;;;6163082;28;83344;-67
2021/12/26 05:05:22;;;;;;;25.77;13.70;;;22.40;31.60;;;;;;6171803;28;86234;-66
2021/12/26 05:08:23;;;;;;;23.60;12.73;;;22.40;31.80;;;;;;6161112;28;85619;-67
2021/12/26 05:11:23;;;;;;;26.25;14.27;;;22.40;31.60;;;;;;6156570;28;83379;-68
2021/12/26 05:14:24;;;;;;;25.90;14.18;;;22.40;31.70;;;;;;6164135;28;84438;-68
2021/12/26 05:17:24;;;;;;;28.45;14.02;;;22.40;31.80;;;;;;6156764;28;82931;-67
2021/12/26 05:20:26;;;;;;;29.98;15.32;;;22.40;31.70;;;;;;6154010;28;85991;-66
2021/12/26 05:23:26;;;;;;;29.15;14.30;;;22.40;31.70;;;;;;6152763;28;85825;-68
2021/12/26 05:26:27;;;;;;;25.40;13.75;;;22.40;31.40;;;;;;6154439;28;83079;-68
2021/12/26 05:29:27;;;;;;;25.38;13.55;;;22.50;31.80;;;;;;6152694;28;85126;-72
2021/12/26 05:32:28;;;;;;;25.55;14.38;;;22.50;31.90;;;;;;6153272;28;85809;-69
2021/12/26 05:35:30;;;;;;;26.02;14.48;;;22.60;31.90;;;;;;6152283;28;85994;-71
2021/12/26 05:38:31;;;;;;;25.73;13.70;;;22.60;31.50;;;;;;6153410;28;86077;-68
2021/12/26 05:41:33;;;;;;;25.02;13.90;;;22.50;31.40;;;;;;6152378;28;85590;-69
2021/12/26 05:45:02;;;;;;;24.05;12.45;;;22.50;32.10;;;;;;6146269;28;83328;-68
2021/12/26 05:48:03;;;;;;;21.48;11.73;;;22.50;33.50;;;;;;6157664;28;85265;-69
2021/12/26 05:51:04;;;;;;;18.38;10.60;;;22.50;34.50;;;;;;6157385;28;86135;-67
2021/12/26 05:54:23;;;;;;;17.95;10.40;;;22.40;35.60;;;;;;6160485;28;83513;-67
2021/12/26 05:57:24;;;;;;;23.42;10.18;;;22.40;35.00;;;;;;6156879;28;85643;-68
2021/12/26 06:00:24;;;;;;;20.10;9.75;;;22.30;34.70;;;;;;6139731;28;86002;-68
2021/12/26 06:03:29;;;;;;;16.20;8.70;;;22.30;35.40;;;;;;6160501;28;85386;-67
2021/12/26 06:06:29;;;;;;;16.00;8.52;;;22.30;36.20;;;;;;6160685;28;81797;-67
2021/12/26 06:09:30;;;;;;;17.45;8.63;;;22.30;37.20;;;;;;6154480;28;81330;-68
2021/12/26 06:12:31;;;;;;;14.25;7.90;;;22.30;38.00;;;;;;6160093;28;83084;-67
2021/12/26 06:15:32;;;;;;;15.88;8.57;;;22.30;38.30;;;;;;6160379;28;82737;-67
2021/12/26 06:18:33;;;;;;;13.40;8.05;;;22.30;39.00;;;;;;6159346;28;81851;-67
2021/12/26 06:21:52;;;;;;;14.50;7.97;;;22.30;39.40;;;;;;6161996;28;80318;-68
2021/12/26 06:25:15;;;;;;;16.75;8.30;;;22.20;40.70;;;;;;6144438;28;80594;-68
2021/12/26 06:28:24;;;;;;;14.48;7.85;;;22.20;40.80;;;;;;6192675;28;87265;-69
2021/12/26 06:31:27;;;;;;;16.38;7.93;;;22.10;41.00;;;;;;6161833;28;81352;-67
2021/12/26 06:34:54;;;;;;;;;;;22.10;41.20;;;;;;6153441;28;80624;-69
2021/12/26 06:37:57;;;;;;;13.80;7.47;;;22.00;41.30;;;;;;6167503;28;80223;-68
2021/12/26 06:41:16;;;;;;;16.17;7.78;;;22.00;41.70;;;;;;6161985;28;81915;-67
2021/12/26 06:44:35;;;;;;;17.35;9.05;;;22.00;41.50;;;;;;6161465;28;81085;-67
2021/12/26 06:47:42;;;;;;;;;;;22.00;40.10;;;;;;6159582;28;83566;-68
2021/12/26 06:50:43;;;;;;;16.42;9.10;;;22.00;40.30;;;;;;6165847;28;80880;-68
2021/12/26 06:53:43;;;;;;;17.98;9.50;;;22.00;39.60;;;;;;6159396;28;80020;-68
2021/12/26 06:56:44;;;;;;;15.75;9.15;;;22.00;39.30;;;;;;6157559;28;81868;-68
2021/12/26 06:59:44;;;;;;;21.13;10.23;;;21.90;38.50;;;;;;6155009;28;80194;-67
2021/12/26 07:02:45;;;;;;;22.63;12.25;;;21.90;39.20;;;;;;6155438;28;83344;-69
2021/12/26 07:05:46;;;;;;;21.55;10.77;;;21.80;38.60;;;;;;6157346;28;82929;-67
2021/12/26 07:08:49;;;;;;;23.20;10.98;;;21.90;38.30;;;;;;6155243;28;85611;-68
2021/12/26 07:11:50;;;;;;;19.42;9.82;;;21.90;38.60;;;;;;6152948;28;85687;-68
2021/12/26 07:15:03;;;;;;;21.70;11.10;;;21.80;38.30;;;;;;6156743;28;85507;-68
2021/12/26 07:18:04;;;;;;;18.98;10.70;;;21.90;38.10;;;;;;6151336;28;84275;-67
2021/12/26 07:21:08;;;;;;;21.92;11.63;;;21.80;38.00;;;;;;6153511;28;85486;-66
2021/12/26 07:24:31;;;;;;;25.27;10.60;;;21.80;37.70;;;;;;6152611;28;84399;-67
2021/12/26 07:27:32;;;;;;;23.85;11.90;;;21.80;38.30;;;;;;6149186;28;85526;-71
2021/12/26 07:30:53;;;;;;;35.00;12.73;;;21.80;37.90;;;;;;6151881;28;84064;-67
2021/12/26 07:33:53;;;;;;;22.02;11.55;;;21.80;38.20;;;;;;6155814;28;83911;-67
2021/12/26 07:36:54;;;;;;;22.50;12.30;;;21.80;37.80;;;;;;6152708;28;85503;-67
2021/12/26 07:40:02;;;;;;;24.67;12.35;;;21.80;38.00;;;;;;6153765;28;87458;-68
2021/12/26 07:43:03;;;;;;;23.15;12.98;;;21.80;37.70;;;;;;6151448;28;85864;-66
2021/12/26 07:46:30;;;;;;;;;;;21.80;37.70;;;;;;6146638;28;87462;-70
2021/12/26 07:49:35;;;;;;;25.55;12.95;;;21.80;37.60;;;;;;6188013;28;85555;-71
2021/12/26 07:52:58;;;;;;;24.42;12.85;;;21.80;37.40;;;;;;6152995;28;82995;-69
2021/12/26 07:56:18;;;;;;;27.77;13.35;;;21.80;37.30;;;;;;6152883;28;83238;-70
2021/12/26 07:59:37;;;;;;;22.35;11.65;;;21.80;36.90;;;;;;6152427;28;83199;-69
2021/12/26 08:02:57;;;;;;;28.02;13.98;;;21.80;37.30;;;;;;6151973;28;86842;-68
2021/12/26 08:06:19;;;;;;;29.05;15.15;;;21.90;36.60;;;;;;6150055;28;88893;-69
2021/12/26 08:09:24;;;;;;;27.75;14.07;;;21.80;36.00;;;;;;6148280;28;84626;-68
2021/12/26 08:12:24;;;;;;;23.45;12.70;;;21.90;36.50;;;;;;6152457;28;85718;-69
2021/12/26 08:15:25;;;;;;;22.08;12.07;;;21.90;36.70;;;;;;6151517;28;84680;-69
2021/12/26 08:18:25;;;;;;;21.10;11.55;;;21.90;36.70;;;;;;6149801;28;84219;-70
2021/12/26 08:21:26;;;;;;;23.95;12.98;;;21.80;37.40;;;;;;6152357;28;84907;-71
2021/12/26 08:24:26;;;;;;;23.83;12.20;;;21.80;37.80;;;;;;6150628;28;83314;-68
2021/12/26 08:27:27;;;;;;;22.65;13.18;;;21.80;37.80;;;;;;6158429;28;83994;-70
2021/12/26 08:30:27;;;;;;;27.50;15.70;;;21.80;37.90;;;;;;6152718;28;83617;-69
2021/12/26 08:33:28;;;;;;;74.55;38.38;;;21.80;37.30;;;;;;6152386;28;84155;-69
2021/12/26 08:36:29;;;;;;;134.75;68.47;;;21.70;37.40;;;;;;6151501;28;84944;-70
2021/12/26 08:39:29;;;;;;;227.95;109.57;;;21.70;38.30;;;;;;6151059;28;82948;-69
2021/12/26 08:42:30;;;;;;;233.60;111.57;;;21.80;38.40;;;;;;6149328;28;86044;-71
2021/12/26 08:45:30;;;;;;;188.27;88.32;;;21.90;38.20;;;;;;6146919;28;85635;-70
2021/12/26 08:48:31;;;;;;;153.65;73.53;;;21.90;37.90;;;;;;6149433;28;85452;-70
2021/12/26 08:51:31;;;;;;;191.75;94.00;;;22.00;37.60;;;;;;6150093;28;83127;-74
2021/12/26 08:54:33;;;;;;;246.50;118.75;;;22.10;37.60;;;;;;6162452;28;85749;-70
2021/12/26 08:57:33;;;;;;;305.08;146.30;;;22.20;37.20;;;;;;6152610;28;85414;-74
2021/12/26 09:00:34;;;;;;;242.88;115.95;;;22.40;37.80;;;;;;6151367;28;86614;-69
2021/12/26 09:03:37;;;;;;;189.25;91.63;;;22.50;37.60;;;;;;6167641;28;85870;-69
2021/12/26 09:06:38;;;;;;;158.10;81.68;;;22.50;37.40;;;;;;6155483;28;86036;-68
2021/12/26 09:09:38;;;;;;;142.50;72.28;;;22.60;37.20;;;;;;6156763;28;83936;-69
2021/12/26 09:12:39;;;;;;;126.95;64.38;;;22.60;37.10;;;;;;6154193;28;83482;-70
2021/12/26 09:15:39;;;;;;;109.90;54.95;;;22.70;37.10;;;;;;6156280;28;83160;-70
2021/12/26 09:18:40;;;;;;;104.28;53.80;;;22.70;36.90;;;;;;6152235;28;83740;-70
2021/12/26 09:21:40;;;;;;;96.30;48.20;;;22.70;37.10;;;;;;6152630;28;83320;-69
2021/12/26 09:24:41;;;;;;;93.10;46.08;;;22.80;37.00;;;;;;6154552;28;83382;-74
2021/12/26 09:27:41;;;;;;;85.32;43.25;;;22.90;37.30;;;;;;6160147;28;83743;-76
2021/12/26 09:30:42;;;;;;;82.38;40.65;;;22.90;36.90;;;;;;6159576;28;83736;-71
2021/12/26 09:33:42;;;;;;;75.78;39.47;;;23.00;36.90;;;;;;6160271;28;82757;-75
2021/12/26 09:36:43;;;;;;;74.45;37.15;;;23.00;37.00;;;;;;6164026;27;84401;-78
2021/12/26 09:39:43;;;;;;;72.70;35.53;;;23.00;36.90;;;;;;6159330;28;83260;-78
2021/12/26 09:42:45;;;;;;;64.07;34.47;;;23.10;36.90;;;;;;6196588;28;86147;-78
2021/12/26 09:45:46;;;;;;;56.08;28.98;;;23.10;37.20;;;;;;6161207;28;83389;-75
2021/12/26 09:48:46;;;;;;;50.88;26.35;;;23.10;37.20;;;;;;6164940;27;82842;-77
2021/12/26 09:51:47;;;;;;;46.33;25.20;;;23.10;37.70;;;;;;6161691;28;83158;-76
2021/12/26 09:54:48;;;;;;;43.65;22.98;;;23.20;38.10;;;;;;6158346;28;84630;-74
2021/12/26 09:57:48;;;;;;;36.10;20.25;;;23.20;38.50;;;;;;6160226;28;83270;-74
2021/12/26 10:00:49;;;;;;;35.78;20.33;;;23.20;38.70;;;;;;6159036;28;84422;-75
2021/12/26 10:03:50;;;;;;;36.80;20.40;;;23.30;39.00;;;;;;6159612;28;82984;-74
2021/12/26 10:06:50;;;;;;;32.70;18.88;;;23.30;39.20;;;;;;6156668;28;83582;-76
2021/12/26 10:09:51;;;;;;;31.15;17.30;;;23.40;39.10;;;;;;6158042;28;83765;-77
2021/12/26 10:12:51;;;;;;;32.50;17.83;;;23.40;39.10;;;;;;6164383;28;83947;-75
2021/12/26 10:15:52;;;;;;;27.42;15.60;;;23.40;39.10;;;;;;6158500;28;84052;-76
2021/12/26 10:18:53;;;;;;;28.77;16.42;;;23.40;39.40;;;;;;6159300;28;83073;-76
2021/12/26 10:21:54;;;;;;;36.17;19.33;;;23.50;39.40;;;;;;6158628;28;83570;-71
2021/12/26 10:24:57;;;;;;;28.05;17.60;;;23.50;37.80;;;;;;6155858;28;85272;-70
2021/12/26 10:27:57;;;;;;;30.75;17.95;;;23.40;37.00;;;;;;6164847;28;84535;-72
2021/12/26 10:30:58;;;;;;;28.48;16.05;;;23.50;37.50;;;;;;6161449;28;83229;-71
2021/12/26 10:33:58;;;;;;;30.27;16.35;;;23.60;37.70;;;;;;6155831;28;83199;-69
2021/12/26 10:37:12;;;;;;;29.27;16.77;;;23.70;37.90;;;;;;6159128;28;85075;-72
2021/12/26 10:40:12;;;;;;;28.52;16.58;;;23.80;38.10;;;;;;6157787;28;85129;-72
2021/12/26 10:43:13;;;;;;;26.77;14.90;;;23.90;38.00;;;;;;6193692;28;85994;-70
2021/12/26 10:46:14;;;;;;;27.40;15.68;;;24.00;38.30;;;;;;6158910;28;83301;-72
2021/12/26 10:49:14;;;;;;;26.90;15.60;;;24.10;38.20;;;;;;6161054;28;83100;-70
2021/12/26 10:52:16;;;;;;;31.23;18.30;;;24.20;38.20;;;;;;6161976;28;83459;-71
2021/12/26 10:55:16;;;;;;;26.27;16.10;;;24.20;38.00;;;;;;6156533;28;84185;-71
2021/12/26 10:58:21;;;;;;;29.23;15.57;;;24.20;38.00;;;;;;6157578;28;83033;-69
2021/12/26 11:01:22;;;;;;;28.87;16.70;;;24.30;38.10;;;;;;6157344;28;88111;-71
2021/12/26 11:04:22;;;;;;;29.40;15.82;;;24.30;37.90;;;;;;6150800;28;85565;-72
2021/12/26 11:07:23;;;;;;;26.80;16.05;;;24.30;37.80;;;;;;6151063;28;86588;-70
2021/12/26 11:10:23;;;;;;;29.05;16.38;;;24.30;37.90;;;;;;6156717;28;83353;-72
2021/12/26 11:13:24;;;;;;;24.42;14.80;;;24.30;37.80;;;;;;6155261;28;83622;-72
2021/12/26 11:16:24;;;;;;;26.05;15.98;;;24.40;38.00;;;;;;6156289;28;84333;-73
2021/12/26 11:19:27;;;;;;;27.10;15.80;;;24.40;38.30;;;;;;6160223;28;83445;-74
2021/12/26 11:22:28;;;;;;;25.77;15.70;;;24.40;38.70;;;;;;6159430;28;83176;-73
2021/12/26 11:25:29;;;;;;;35.00;16.17;;;24.50;39.00;;;;;;6157784;28;84475;-70
2021/12/26 11:28:30;;;;;;;27.77;15.32;;;24.50;39.30;;;;;;6156632;28;83297;-73
2021/12/26 11:31:31;;;;;;;29.20;15.25;;;24.50;40.00;;;;;;6156169;28;83181;-73
2021/12/26 11:34:32;;;;;;;30.95;16.23;;;24.60;40.70;;;;;;6150937;28;83301;-74
2021/12/26 11:37:33;;;;;;;28.90;15.80;;;24.60;40.70;;;;;;6155882;28;83420;-76
2021/12/26 11:41:12;;;;;;;30.63;16.50;;;24.70;40.70;;;;;;6107188;28;84620;-74
2021/12/26 11:44:32;;;;;;;28.05;14.82;;;24.70;40.70;;;;;;6103630;28;83519;-70
2021/12/26 11:47:58;;;;;;;25.80;15.55;;;24.70;40.80;;;;;;6153951;28;83628;-71
2021/12/26 11:51:37;;;;;;;26.00;13.93;;;24.70;40.60;;;;;;6148427;28;83220;-72
2021/12/26 11:54:49;;;;;;;31.27;14.23;;;24.80;41.00;;;;;;6147823;28;83142;-72
2021/12/26 11:57:55;;;;;;;26.08;13.50;;;24.80;41.00;;;;;;6165372;28;85934;-70
2021/12/26 12:00:55;;;;;;;30.63;14.25;;;24.80;41.10;;;;;;6153044;28;84099;-69
2021/12/26 12:03:56;;;;;;;21.42;13.20;;;24.80;41.00;;;;;;6154225;28;83816;-70
2021/12/26 12:06:57;;;;;;;26.05;12.90;;;24.80;40.80;;;;;;6154756;28;84511;-68
2021/12/26 12:09:57;;;;;;;20.63;12.02;;;24.80;40.70;;;;;;6156347;28;83401;-69
2021/12/26 12:12:58;;;;;;;19.63;12.18;;;24.80;40.40;;;;;;6153522;28;85624;-69
2021/12/26 12:15:58;;;;;;;20.00;11.63;;;24.80;40.20;;;;;;6157141;28;83044;-69
2021/12/26 12:18:59;;;;;;;20.30;12.02;;;24.70;40.10;;;;;;6155981;28;84567;-70
2021/12/26 12:21:59;;;;;;;24.08;11.45;;;24.70;40.00;;;;;;6152976;28;84053;-70
2021/12/26 12:25:00;;;;;;;18.63;11.60;;;24.70;40.10;;;;;;6153875;28;84363;-69
2021/12/26 12:28:00;;;;;;;17.45;11.23;;;24.60;40.10;;;;;;6155027;28;83690;-71
2021/12/26 12:31:01;;;;;;;21.05;11.25;;;24.60;40.20;;;;;;6155468;28;84242;-70
2021/12/26 12:34:01;;;;;;;16.55;9.63;;;24.60;40.00;;;;;;6157241;28;83493;-70
2021/12/26 12:37:02;;;;;;;16.15;9.90;;;24.60;40.50;;;;;;6160233;28;82962;-68
2021/12/26 12:40:02;;;;;;;17.63;10.77;;;24.60;40.30;;;;;;6147282;28;80690;-68
2021/12/26 12:43:03;;;;;;;18.92;10.52;;;24.60;40.00;;;;;;6153923;28;83404;-68
2021/12/26 12:46:07;;;;;;;15.95;9.68;;;24.60;40.20;;;;;;6155457;28;82927;-69
2021/12/26 12:49:07;;;;;;;15.20;9.90;;;24.60;40.20;;;;;;6157589;28;83078;-69
2021/12/26 12:52:08;;;;;;;14.48;9.70;;;24.60;40.20;;;;;;6156017;28;80278;-69
2021/12/26 12:55:09;;;;;;;15.65;8.73;;;24.60;40.30;;;;;;6157417;28;83078;-70
2021/12/26 12:58:09;;;;;;;14.57;9.20;;;24.60;40.20;;;;;;6156535;28;81331;-72
2021/12/26 13:01:11;;;;;;;16.55;9.90;;;24.50;40.10;;;;;;6157196;28;82428;-70
2021/12/26 13:04:11;;;;;;;16.63;10.30;;;24.50;40.50;;;;;;6158189;28;80649;-70
2021/12/26 13:07:12;;;;;;;17.67;10.25;;;24.50;39.90;;;;;;6152581;28;85375;-70
2021/12/26 13:10:12;;;;;;;16.00;9.43;;;24.50;39.50;;;;;;6154883;28;83168;-71
2021/12/26 13:13:13;;;;;;;14.73;10.38;;;24.40;39.50;;;;;;6159862;28;82945;-71
2021/12/26 13:16:13;;;;;;;16.58;10.35;;;24.40;39.10;;;;;;6154127;28;82772;-68
2021/12/26 13:19:14;;;;;;;16.02;9.38;;;24.40;39.40;;;;;;6151817;28;82783;-67
2021/12/26 13:22:14;;;;;;;15.23;9.40;;;24.30;39.20;;;;;;6156605;28;83098;-67
2021/12/26 13:25:15;;;;;;;15.48;9.70;;;24.20;39.50;;;;;;6153245;28;80863;-67
2021/12/26 13:28:16;;;;;;;13.82;8.50;;;24.10;39.30;;;;;;6156177;28;81821;-69
2021/12/26 13:31:16;;;;;;;14.75;8.88;;;24.00;39.40;;;;;;6157169;28;80979;-68
2021/12/26 13:34:17;;;;;;;15.25;8.88;;;24.00;39.70;;;;;;6157852;28;81247;-67
2021/12/26 13:37:17;;;;;;;15.93;9.65;;;23.90;39.90;;;;;;6159241;28;80931;-66
2021/12/26 13:40:18;;;;;;;14.35;9.15;;;23.90;40.10;;;;;;6160796;28;80774;-67
2021/12/26 13:43:18;;;;;;;14.00;8.95;;;23.90;39.40;;;;;;6157895;28;80882;-68
2021/12/26 13:46:19;;;;;;;13.32;8.85;;;23.80;39.80;;;;;;6149613;28;83381;-69
2021/12/26 13:49:19;;;;;;;14.90;8.60;;;23.70;40.20;;;;;;6147456;28;84148;-67
2021/12/26 13:52:20;;;;;;;14.48;8.18;;;23.70;40.20;;;;;;6148574;28;81917;-68
2021/12/26 13:55:20;;;;;;;14.52;8.20;;;23.70;40.50;;;;;;6148928;28;81976;-68
2021/12/26 13:58:26;;;;;;;12.50;8.45;;;23.70;40.30;;;;;;6150279;28;86361;-69
2021/12/26 14:01:26;;;;;;;16.17;9.10;;;23.90;40.10;;;;;;6150316;28;81369;-68
2021/12/26 14:04:27;;;;;;;13.93;8.77;;;23.90;39.90;;;;;;6148653;28;81272;-68
2021/12/26 14:07:27;;;;;;;12.88;7.75;;;23.90;39.80;;;;;;6153138;28;81013;-68
2021/12/26 14:10:28;;;;;;;14.45;8.68;;;24.00;39.50;;;;;;6154525;28;83048;-68
2021/12/26 14:13:29;;;;;;;12.23;8.20;;;24.00;39.20;;;;;;6151768;28;80930;-70
2021/12/26 14:16:30;;;;;;;13.82;7.78;;;24.10;39.00;;;;;;6153138;28;80663;-70
2021/12/26 14:19:31;;;;;;;15.73;8.68;;;24.10;39.40;;;;;;6152989;28;82054;-69
2021/12/26 14:22:31;;;;;;;12.80;7.88;;;24.10;39.60;;;;;;6150846;28;81282;-69
2021/12/26 14:25:32;;;;;;;15.43;8.93;;;24.00;39.00;;;;;;6153770;28;81152;-70
2021/12/26 14:28:32;;;;;;;13.32;8.48;;;24.00;38.60;;;;;;6151435;28;81197;-68
2021/12/26 14:31:33;;;;;;;13.68;8.57;;;23.90;39.30;;;;;;6152829;28;83292;-72
2021/12/26 14:34:35;;;;;;;15.05;8.68;;;23.80;39.80;;;;;;6151562;28;81541;-71
2021/12/26 14:37:36;;;;;;;14.02;7.85;;;23.70;40.00;;;;;;6153697;28;80928;-70
2021/12/26 14:40:37;;;;;;;18.15;8.38;;;23.70;41.00;;;;;;6154309;28;81109;-68
2021/12/26 14:43:37;;;;;;;12.98;8.30;;;23.70;41.10;;;;;;6152630;28;81066;-68
2021/12/26 14:46:38;;;;;;;13.20;8.10;;;23.60;40.40;;;;;;6152287;28;80943;-68
2021/12/26 14:49:38;;;;;;;15.93;9.15;;;23.50;41.00;;;;;;6152723;28;81113;-69
2021/12/26 14:52:39;;;;;;;15.40;9.57;;;23.50;40.80;;;;;;6150783;28;81795;-68
2021/12/26 14:55:39;;;;;;;13.88;8.00;;;23.30;41.10;;;;;;6151915;28;83814;-70
2021/12/26 14:58:40;;;;;;;15.57;8.60;;;23.20;41.60;;;;;;6152439;28;81998;-67
2021/12/26 15:01:40;;;;;;;14.60;8.70;;;23.20;42.00;;;;;;6153164;28;81463;-68
2021/12/26 15:04:41;;;;;;;13.07;7.35;;;23.20;41.90;;;;;;6150525;28;80738;-68
2021/12/26 15:07:41;;;;;;;15.68;8.88;;;23.10;42.50;;;;;;6152372;28;80521;-67
2021/12/26 15:10:42;;;;;;;15.90;9.18;;;23.10;42.60;;;;;;6153546;28;81437;-68
2021/12/26 15:13:42;;;;;;;15.30;9.15;;;23.00;42.50;;;;;;6151475;28;81480;-68
2021/12/26 15:16:45;;;;;;;19.33;11.05;;;23.10;43.20;;;;;;6153551;28;80671;-67
2021/12/26 15:19:46;;;;;;;19.88;10.73;;;23.10;42.70;;;;;;6156037;28;83033;-69
2021/12/26 15:22:46;;;;;;;18.42;10.07;;;23.10;43.40;;;;;;6157623;28;83350;-66
2021/12/26 15:25:47;;;;;;;18.13;10.90;;;23.10;43.30;;;;;;6157720;28;83095;-67
2021/12/26 15:28:47;;;;;;;22.58;11.90;;;23.00;43.10;;;;;;6156793;28;83201;-67
2021/12/26 15:31:48;;;;;;;23.73;12.73;;;23.00;43.50;;;;;;6158185;28;83393;-68
2021/12/26 15:34:48;;;;;;;20.05;12.40;;;23.00;43.50;;;;;;6156250;28;84578;-67
2021/12/26 15:37:49;;;;;;;25.58;16.25;;;23.00;43.80;;;;;;6157700;28;83210;-67
2021/12/26 15:40:49;;;;;;;30.05;18.63;;;23.00;44.10;;;;;;6155636;28;84482;-68